createdAt,value
2023-02-26T00:01:38.679Z,1.13
2023-02-26T00:04:08.095Z,0.90
2023-02-26T00:06:39.603Z,0.90
2023-02-26T00:09:07.728Z,0.70
2023-02-26T00:11:36.231Z,0.80
2023-02-26T00:14:04.649Z,0.90
2023-02-26T00:16:34.401Z,0.70
2023-02-26T00:19:04.267Z,0.83
2023-02-26T00:21:33.661Z,0.90
2023-02-26T00:24:03.155Z,0.80
2023-02-26T00:26:32.233Z,0.77
2023-02-26T00:29:00.956Z,0.87
2023-02-26T00:31:29.505Z,0.50
2023-02-26T00:33:58.671Z,0.60
2023-02-26T00:36:33.782Z,0.87
2023-02-26T00:39:09.008Z,0.60
2023-02-26T00:41:38.967Z,0.80
2023-02-26T00:44:07.450Z,0.57
2023-02-26T00:46:42.567Z,0.60
2023-02-26T00:49:18.147Z,0.73
2023-02-26T00:51:50.291Z,1.10
2023-02-26T00:54:21.856Z,0.80
2023-02-26T00:56:50.007Z,0.83
2023-02-26T00:59:18.313Z,0.83
2023-02-26T01:01:46.457Z,0.57
2023-02-26T01:04:15.557Z,0.70
2023-02-26T01:06:46.665Z,0.87
2023-02-26T01:09:21.576Z,0.80
2023-02-26T01:11:49.967Z,0.90
2023-02-26T01:14:18.460Z,1.00
2023-02-26T01:16:52.245Z,0.93
2023-02-26T01:19:28.054Z,0.77
2023-02-26T01:22:01.677Z,0.87
2023-02-26T01:24:32.499Z,0.70
2023-02-26T01:27:00.616Z,0.80
2023-02-26T01:29:28.792Z,0.77
2023-02-26T01:32:03.326Z,0.97
2023-02-26T01:34:36.483Z,0.80
2023-02-26T01:37:12.969Z,0.60
2023-02-26T01:39:46.441Z,0.60
2023-02-26T01:42:17.928Z,1.00
2023-02-26T01:44:57.398Z,0.87
2023-02-26T01:47:30.460Z,0.93
2023-02-26T01:49:58.602Z,0.90
2023-02-26T01:53:05.728Z,0.70
2023-02-26T01:55:35.024Z,0.60
2023-02-26T01:58:03.515Z,0.70
2023-02-26T02:00:31.942Z,0.60
2023-02-26T02:02:59.914Z,0.90
2023-02-26T02:05:30.578Z,0.70
2023-02-26T02:07:58.985Z,0.77
2023-02-26T02:10:26.992Z,0.87
2023-02-26T02:13:04.822Z,0.77
2023-02-26T02:15:39.254Z,0.77
2023-02-26T02:18:13.862Z,0.73
2023-02-26T02:21:06.966Z,0.77
2023-02-26T02:23:39.004Z,0.73
2023-02-26T02:26:45.724Z,0.90
2023-02-26T02:29:29.701Z,0.70
2023-02-26T02:32:00.541Z,0.90
2023-02-26T02:34:31.565Z,0.80
2023-02-26T02:37:01.195Z,0.90
2023-02-26T02:39:31.275Z,1.00
2023-02-26T02:42:01.944Z,0.70
2023-02-26T02:44:31.293Z,0.70
2023-02-26T02:47:01.183Z,0.53
2023-02-26T02:49:34.620Z,0.77
2023-02-26T02:52:06.879Z,0.70
2023-02-26T02:54:37.865Z,0.70
2023-02-26T02:57:09.408Z,0.80
2023-02-26T02:59:41.077Z,1.10
2023-02-26T03:02:15.415Z,0.70
2023-02-26T03:04:43.997Z,0.70
2023-02-26T03:07:12.387Z,0.50
2023-02-26T03:09:40.356Z,0.60
2023-02-26T03:12:08.314Z,0.43
2023-02-26T03:14:36.598Z,0.63
2023-02-26T03:17:17.061Z,1.27
2023-02-26T03:19:51.088Z,0.73
2023-02-26T03:22:22.009Z,0.70
2023-02-26T03:24:52.880Z,0.67
2023-02-26T03:27:24.470Z,0.50
2023-02-26T03:29:56.156Z,0.57
2023-02-26T03:32:29.942Z,0.37
2023-02-26T03:35:01.669Z,0.90
2023-02-26T03:37:35.368Z,0.70
2023-02-26T03:40:06.232Z,0.63
2023-02-26T03:42:37.795Z,0.50
2023-02-26T03:45:09.020Z,0.70
2023-02-26T03:47:40.027Z,0.50
2023-02-26T03:50:09.449Z,0.70
2023-02-26T03:52:39.854Z,0.87
2023-02-26T03:55:11.233Z,0.50
2023-02-26T03:57:39.368Z,0.80
2023-02-26T04:00:10.591Z,0.70
2023-02-26T04:02:44.211Z,0.63
2023-02-26T04:05:14.671Z,0.80
2023-02-26T04:07:42.904Z,0.60
2023-02-26T04:10:11.914Z,0.77
2023-02-26T04:12:39.843Z,0.60
2023-02-26T04:15:09.121Z,0.90
2023-02-26T04:17:37.042Z,0.97
2023-02-26T04:20:09.974Z,0.80
2023-02-26T04:22:38.244Z,0.80
2023-02-26T04:25:07.163Z,0.80
2023-02-26T04:27:35.042Z,0.87
2023-02-26T04:30:02.980Z,1.00
2023-02-26T04:32:30.975Z,1.00
2023-02-26T04:34:58.985Z,0.83
2023-02-26T04:37:28.237Z,0.97
2023-02-26T04:39:56.148Z,0.83
2023-02-26T04:42:24.068Z,0.80
2023-02-26T04:44:52.028Z,0.70
2023-02-26T04:47:19.909Z,1.13
2023-02-26T04:49:47.817Z,0.73
2023-02-26T04:52:15.894Z,0.77
2023-02-26T04:54:45.188Z,0.77
2023-02-26T04:57:13.116Z,0.60
2023-02-26T04:59:40.987Z,0.70
2023-02-26T05:02:08.945Z,0.87
2023-02-26T05:04:36.869Z,0.60
2023-02-26T05:07:04.969Z,0.60
2023-02-26T05:09:32.875Z,0.90
2023-02-26T05:12:02.139Z,0.80
2023-02-26T05:14:30.133Z,0.53
2023-02-26T05:16:58.017Z,0.67
2023-02-26T05:19:25.945Z,0.73
2023-02-26T05:21:53.916Z,0.70
2023-02-26T05:24:21.995Z,0.53
2023-02-26T05:26:49.933Z,0.97
2023-02-26T05:29:19.580Z,0.70
2023-02-26T05:31:47.571Z,0.80
2023-02-26T05:34:15.567Z,0.80
2023-02-26T05:36:43.503Z,0.63
2023-02-26T05:39:11.825Z,0.50
2023-02-26T05:41:39.747Z,1.17
2023-02-26T05:44:09.226Z,0.50
2023-02-26T05:46:38.634Z,0.70
2023-02-26T05:49:06.611Z,0.87
2023-02-26T05:51:34.609Z,0.77
2023-02-26T05:54:02.531Z,0.70
2023-02-26T05:56:30.400Z,1.03
2023-02-26T05:58:58.563Z,0.43
2023-02-26T06:01:26.457Z,0.80
2023-02-26T06:03:55.733Z,0.50
2023-02-26T06:06:25.821Z,0.80
2023-02-26T06:08:53.898Z,0.60
2023-02-26T06:11:22.109Z,0.70
2023-02-26T06:13:50.069Z,0.40
2023-02-26T06:16:18.201Z,0.73
2023-02-26T06:18:46.178Z,0.67
2023-02-26T06:21:15.599Z,0.80
2023-02-26T06:23:43.561Z,0.67
2023-02-26T06:26:11.495Z,0.50
2023-02-26T06:28:39.412Z,1.40
2023-02-26T06:31:07.354Z,0.63
2023-02-26T06:33:35.300Z,1.07
2023-02-26T06:36:03.226Z,0.90
2023-02-26T06:38:32.559Z,1.00
2023-02-26T06:41:00.471Z,0.67
2023-02-26T06:43:28.648Z,0.70
2023-02-26T06:45:59.084Z,0.70
2023-02-26T06:48:27.099Z,0.60
2023-02-26T06:50:54.978Z,0.87
2023-02-26T06:53:22.938Z,0.90
2023-02-26T06:55:53.586Z,0.97
2023-02-26T06:58:22.170Z,0.80
2023-02-26T07:00:50.168Z,0.67
2023-02-26T07:03:19.101Z,1.00
2023-02-26T07:05:47.420Z,0.90
2023-02-26T07:08:15.802Z,0.63
2023-02-26T07:10:46.222Z,0.80
2023-02-26T07:13:15.508Z,0.50
2023-02-26T07:15:45.978Z,1.10
2023-02-26T07:18:14.249Z,0.53
2023-02-26T07:20:42.971Z,0.83
2023-02-26T07:23:11.081Z,1.10
2023-02-26T07:25:39.003Z,0.60
2023-02-26T07:28:07.032Z,0.70
2023-02-26T07:30:36.635Z,0.80
2023-02-26T07:33:04.693Z,0.60
2023-02-26T07:35:32.635Z,0.80
2023-02-26T07:38:00.526Z,0.83
2023-02-26T07:40:28.559Z,1.00
2023-02-26T07:42:56.460Z,0.83
2023-02-26T07:45:24.573Z,0.73
2023-02-26T07:47:53.985Z,0.90
2023-02-26T07:50:24.917Z,0.70
2023-02-26T07:52:53.140Z,0.60
2023-02-26T07:55:21.512Z,1.10
2023-02-26T07:57:50.225Z,1.00
2023-02-26T08:00:19.397Z,0.90
2023-02-26T08:02:47.840Z,0.70
2023-02-26T08:05:17.289Z,0.97
2023-02-26T08:07:58.737Z,1.10
2023-02-26T08:10:26.627Z,1.20
2023-02-26T08:12:54.568Z,0.57
2023-02-26T08:15:22.685Z,0.53
2023-02-26T08:17:53.213Z,0.60
2023-02-26T08:20:22.544Z,0.70
2023-02-26T08:22:51.923Z,0.93
2023-02-26T08:25:20.123Z,0.90
2023-02-26T08:27:48.023Z,0.87
2023-02-26T08:30:16.289Z,1.30
2023-02-26T08:32:46.044Z,1.17
2023-02-26T08:35:14.029Z,0.87
2023-02-26T08:37:43.380Z,0.83
2023-02-26T08:40:14.849Z,0.70
2023-02-26T08:42:43.255Z,0.97
2023-02-26T08:45:11.983Z,0.87
2023-02-26T08:47:53.884Z,1.00
2023-02-26T08:50:23.828Z,0.80
2023-02-26T08:52:53.418Z,0.80
2023-02-26T08:55:21.386Z,0.90
2023-02-26T08:57:49.297Z,0.77
2023-02-26T09:00:18.744Z,0.87
2023-02-26T09:02:46.826Z,0.80
2023-02-26T09:05:15.506Z,0.73
2023-02-26T09:07:43.634Z,1.13
2023-02-26T09:10:14.430Z,0.60
2023-02-26T09:12:42.525Z,0.97
2023-02-26T09:15:12.033Z,0.67
2023-02-26T09:17:39.978Z,1.00
2023-02-26T09:20:09.234Z,0.97
2023-02-26T09:22:37.226Z,1.07
2023-02-26T09:25:05.995Z,0.90
2023-02-26T09:27:35.596Z,1.23
2023-02-26T09:30:03.573Z,0.70
2023-02-26T09:32:31.562Z,0.53
2023-02-26T09:34:59.537Z,0.80
2023-02-26T09:37:27.468Z,0.60
2023-02-26T09:39:55.341Z,0.60
2023-02-26T09:42:33.240Z,0.90
2023-02-26T09:45:03.082Z,0.90
2023-02-26T09:47:41.622Z,0.60
2023-02-26T09:50:16.404Z,0.73
2023-02-26T09:52:46.828Z,0.40
2023-02-26T09:55:17.677Z,0.60
2023-02-26T09:57:47.182Z,0.80
2023-02-26T10:00:24.940Z,0.90
2023-02-26T10:03:01.598Z,0.50
2023-02-26T10:05:36.634Z,0.80
2023-02-26T10:08:07.780Z,0.77
2023-02-26T10:10:41.909Z,0.93
2023-02-26T10:13:20.783Z,0.83
2023-02-26T10:15:51.209Z,0.90
2023-02-26T10:18:22.149Z,0.57
2023-02-26T10:20:55.912Z,0.60
2023-02-26T10:23:28.688Z,0.90
2023-02-26T10:26:03.329Z,0.80
2023-02-26T10:28:39.483Z,0.70
2023-02-26T10:31:15.193Z,0.33
2023-02-26T10:33:48.948Z,0.70
2023-02-26T10:36:21.023Z,0.60
2023-02-26T10:38:51.428Z,0.83
2023-02-26T10:41:22.029Z,0.80
2023-02-26T10:43:52.696Z,0.70
2023-02-26T10:46:28.256Z,0.73
2023-02-26T10:49:10.529Z,0.60
2023-02-26T10:51:39.883Z,0.67
2023-02-26T10:54:16.850Z,1.00
2023-02-26T10:56:44.998Z,0.73
2023-02-26T10:59:13.257Z,0.90
2023-02-26T11:01:43.914Z,0.70
2023-02-26T11:04:14.655Z,0.50
2023-02-26T11:06:47.623Z,0.80
2023-02-26T11:09:22.051Z,0.70
2023-02-26T11:11:53.072Z,1.00
2023-02-26T11:14:21.857Z,1.30
2023-02-26T11:16:54.876Z,0.77
2023-02-26T11:19:28.482Z,0.60
2023-02-26T11:21:56.682Z,0.60
2023-02-26T11:24:31.930Z,0.60
2023-02-26T11:27:04.269Z,0.67
2023-02-26T11:29:38.431Z,0.90
2023-02-26T11:32:11.571Z,0.80
2023-02-26T11:34:40.478Z,0.70
2023-02-26T11:37:08.376Z,0.60
2023-02-26T11:39:37.693Z,0.83
2023-02-26T11:42:06.218Z,0.53
2023-02-26T11:44:37.741Z,0.90
2023-02-26T11:47:09.260Z,0.50
2023-02-26T11:49:37.319Z,0.97
2023-02-26T11:52:16.969Z,0.90
2023-02-26T11:54:46.658Z,0.93
2023-02-26T11:57:19.020Z,0.60
2023-02-26T11:59:51.060Z,0.77
2023-02-26T12:02:24.282Z,0.50
2023-02-26T12:04:54.569Z,0.87
2023-02-26T12:07:23.316Z,0.80
2023-02-26T12:09:51.238Z,0.50
2023-02-26T12:12:46.783Z,0.73
2023-02-26T12:15:30.384Z,0.53
2023-02-26T12:18:20.750Z,0.90
2023-02-26T12:20:56.363Z,0.70
2023-02-26T12:23:49.932Z,0.57
2023-02-26T12:26:26.074Z,0.60
2023-02-26T12:29:19.354Z,0.90
2023-02-26T12:32:02.475Z,0.67
2023-02-26T12:35:24.819Z,0.80
2023-02-26T12:38:02.016Z,1.00
2023-02-26T12:40:45.952Z,0.57
2023-02-26T12:43:19.686Z,0.47
2023-02-26T12:45:55.855Z,0.67
2023-02-26T12:48:37.881Z,0.60
2023-02-26T12:51:14.485Z,0.77
2023-02-26T12:53:54.568Z,0.60
2023-02-26T12:56:42.538Z,0.83
2023-02-26T12:59:39.249Z,1.03
2023-02-26T13:02:25.244Z,0.50
2023-02-26T13:05:18.719Z,0.80
2023-02-26T13:08:06.111Z,0.67
2023-02-26T13:10:44.875Z,0.80
2023-02-26T13:13:40.911Z,0.90
2023-02-26T13:16:19.680Z,0.90
2023-02-26T13:18:52.886Z,0.70
2023-02-26T13:21:25.279Z,0.80
2023-02-26T13:23:57.480Z,0.87
2023-02-26T13:26:27.894Z,1.07
2023-02-26T13:28:58.740Z,0.90
2023-02-26T13:31:29.628Z,0.90
2023-02-26T13:34:02.720Z,0.70
2023-02-26T13:36:30.781Z,0.80
2023-02-26T13:39:12.173Z,0.70
2023-02-26T13:41:48.043Z,0.90
2023-02-26T13:44:30.170Z,0.73
2023-02-26T13:47:16.904Z,0.83
2023-02-26T13:49:53.352Z,0.80
2023-02-26T13:52:26.557Z,0.83
2023-02-26T13:54:55.214Z,0.90
2023-02-26T13:57:39.054Z,0.90
2023-02-26T14:00:26.288Z,0.70
2023-02-26T14:02:56.111Z,0.80
2023-02-26T14:05:54.770Z,0.83
2023-02-26T14:08:41.659Z,1.00
2023-02-26T14:11:29.178Z,0.80
2023-02-26T14:14:25.445Z,0.60
2023-02-26T14:17:20.573Z,0.63
2023-02-26T14:20:22.833Z,0.83
2023-02-26T14:22:54.982Z,0.90
2023-02-26T14:25:35.182Z,0.70
2023-02-26T14:28:35.213Z,0.90
2023-02-26T14:31:15.415Z,0.80
2023-02-26T14:33:46.824Z,0.93
2023-02-26T14:36:19.778Z,0.90
2023-02-26T14:38:49.671Z,0.90
2023-02-26T14:41:27.465Z,1.00
2023-02-26T14:44:01.590Z,0.73
2023-02-26T14:46:31.495Z,0.80
2023-02-26T14:48:59.396Z,1.03
2023-02-26T14:51:35.128Z,0.83
2023-02-26T14:54:27.815Z,0.80
2023-02-26T14:57:03.640Z,1.00
2023-02-26T15:00:12.752Z,0.60
2023-02-26T15:02:54.969Z,0.77
2023-02-26T15:05:39.418Z,0.90
2023-02-26T15:08:33.088Z,1.13
2023-02-26T15:11:31.723Z,0.90
2023-02-26T15:14:19.812Z,0.80
2023-02-26T15:16:55.360Z,0.90
2023-02-26T15:19:38.988Z,0.90
2023-02-26T15:22:18.952Z,0.90
2023-02-26T15:24:47.443Z,0.80
2023-02-26T15:27:17.961Z,0.90
2023-02-26T15:29:46.266Z,0.90
2023-02-26T15:32:24.929Z,0.93
2023-02-26T15:35:00.868Z,0.87
2023-02-26T15:37:33.656Z,1.07
2023-02-26T15:40:04.816Z,1.00
2023-02-26T15:42:37.527Z,0.70
2023-02-26T15:45:11.220Z,0.70
2023-02-26T15:47:39.314Z,1.10
2023-02-26T15:50:11.202Z,1.00
2023-02-26T15:52:39.228Z,0.80
2023-02-26T15:55:08.560Z,0.70
2023-02-26T15:57:37.133Z,0.70
2023-02-26T16:00:10.485Z,1.10
2023-02-26T16:02:38.596Z,0.70
2023-02-26T16:05:09.100Z,0.80
2023-02-26T16:07:37.116Z,0.80
2023-02-26T16:10:08.064Z,0.87
2023-02-26T16:12:38.662Z,0.70
2023-02-26T16:15:12.753Z,0.80
2023-02-26T16:17:43.830Z,1.20
2023-02-26T16:20:18.206Z,1.07
2023-02-26T16:22:50.979Z,1.10
2023-02-26T16:25:24.830Z,1.00
2023-02-26T16:27:58.056Z,0.90
2023-02-26T16:30:36.252Z,1.07
2023-02-26T16:33:05.561Z,0.77
2023-02-26T16:35:39.180Z,0.80
2023-02-26T16:38:14.224Z,1.10
2023-02-26T16:40:44.659Z,0.90
2023-02-26T16:43:35.556Z,0.63
2023-02-26T16:46:05.612Z,0.63
2023-02-26T16:48:38.820Z,0.90
2023-02-26T16:51:12.217Z,0.70
2023-02-26T16:53:45.196Z,1.10
2023-02-26T16:56:16.794Z,0.83
2023-02-26T16:58:45.636Z,0.80
2023-02-26T17:01:16.398Z,0.90
2023-02-26T17:03:49.359Z,0.90
2023-02-26T17:06:20.431Z,0.87
2023-02-26T17:08:52.281Z,1.03
2023-02-26T17:11:24.988Z,1.00
2023-02-26T17:14:05.880Z,0.70
2023-02-26T17:16:33.822Z,1.00
2023-02-26T17:19:02.711Z,1.20
2023-02-26T17:21:32.718Z,0.70
2023-02-26T17:24:00.748Z,1.13
2023-02-26T17:26:29.480Z,0.90
2023-02-26T17:28:57.787Z,0.87
2023-02-26T17:31:26.451Z,0.67
2023-02-26T17:33:54.636Z,0.90
2023-02-26T17:36:22.533Z,0.73
2023-02-26T17:38:51.982Z,0.83
2023-02-26T17:41:20.275Z,0.77
2023-02-26T17:43:48.177Z,0.97
2023-02-26T17:46:16.264Z,0.70
2023-02-26T17:48:44.197Z,1.07
2023-02-26T17:51:16.001Z,1.00
2023-02-26T17:53:46.443Z,1.00
2023-02-26T17:56:20.589Z,0.83
2023-02-26T17:58:48.717Z,1.13
2023-02-26T18:01:16.977Z,0.87
2023-02-26T18:03:45.100Z,0.90
2023-02-26T18:06:15.408Z,1.00
2023-02-26T18:08:44.730Z,1.23
2023-02-26T18:11:13.711Z,1.10
2023-02-26T18:13:43.342Z,1.13
2023-02-26T18:16:17.094Z,1.10
2023-02-26T18:18:45.107Z,1.30
2023-02-26T18:21:14.855Z,1.33
2023-02-26T18:23:42.793Z,1.40
2023-02-26T18:26:11.684Z,1.23
2023-02-26T18:28:39.806Z,1.20
2023-02-26T18:31:10.321Z,1.10
2023-02-26T18:33:40.551Z,1.40
2023-02-26T18:36:10.787Z,0.90
2023-02-26T18:38:38.675Z,0.90
2023-02-26T18:41:06.690Z,1.20
2023-02-26T18:43:34.681Z,1.00
2023-02-26T18:46:02.700Z,1.43
2023-02-26T18:48:32.123Z,1.07
2023-02-26T18:51:00.485Z,1.00
2023-02-26T18:53:28.395Z,1.00
2023-02-26T18:55:58.200Z,1.30
2023-02-26T18:58:26.407Z,1.10
2023-02-26T19:00:54.305Z,1.20
2023-02-26T19:03:22.212Z,1.40
2023-02-26T19:05:58.784Z,1.20
2023-02-26T19:08:26.746Z,1.20
2023-02-26T19:10:55.221Z,1.17
2023-02-26T19:13:23.997Z,1.20
2023-02-26T19:15:52.136Z,1.47
2023-02-26T19:18:20.667Z,1.03
2023-02-26T19:20:48.820Z,2.40
2023-02-26T19:23:18.621Z,1.87
2023-02-26T19:25:46.566Z,1.87
2023-02-26T19:28:14.687Z,5.83
2023-02-26T19:30:42.676Z,4.40
2023-02-26T19:33:10.671Z,4.00
2023-02-26T19:35:38.627Z,4.20
2023-02-26T19:38:06.817Z,3.73
2023-02-26T19:40:36.118Z,3.90
2023-02-26T19:43:04.194Z,2.30
2023-02-26T19:45:32.132Z,3.10
2023-02-26T19:48:00.372Z,4.23
2023-02-26T19:50:28.331Z,3.13
2023-02-26T19:52:58.428Z,2.87
2023-02-26T19:55:26.306Z,2.80
2023-02-26T19:57:55.662Z,2.27
2023-02-26T20:00:24.290Z,3.27
2023-02-26T20:02:52.280Z,2.33
2023-02-26T20:05:20.574Z,2.03
2023-02-26T20:07:48.770Z,2.30
2023-02-26T20:10:17.167Z,2.73
2023-02-26T20:12:46.115Z,2.20
2023-02-26T20:15:15.479Z,2.40
2023-02-26T20:17:43.820Z,2.40
2023-02-26T20:20:12.788Z,2.23
2023-02-26T20:22:40.759Z,2.37
2023-02-26T20:25:09.450Z,2.40
2023-02-26T20:27:37.474Z,2.00
2023-02-26T20:30:06.568Z,1.90
2023-02-26T20:32:36.028Z,2.03
2023-02-26T20:35:04.369Z,2.17
2023-02-26T20:37:32.333Z,1.67
2023-02-26T20:40:00.253Z,7.20
2023-02-26T20:42:28.145Z,3.20
2023-02-26T20:44:56.040Z,3.30
2023-02-26T20:47:24.045Z,2.30
2023-02-26T20:49:53.320Z,2.20
2023-02-26T20:52:21.270Z,2.10
2023-02-26T20:54:49.167Z,1.97
2023-02-26T20:57:17.063Z,1.13
2023-02-26T20:59:44.994Z,1.53
2023-02-26T21:02:15.523Z,1.80
2023-02-26T21:04:43.620Z,1.80
2023-02-26T21:07:21.958Z,1.33
2023-02-26T21:09:50.227Z,1.10
2023-02-26T21:12:18.844Z,1.40
2023-02-26T21:14:46.881Z,1.80
2023-02-26T21:17:15.084Z,2.00
2023-02-26T21:19:43.014Z,1.80
2023-02-26T21:22:11.074Z,1.70
2023-02-26T21:24:40.420Z,1.40
2023-02-26T21:27:08.473Z,1.80
2023-02-26T21:29:36.708Z,1.80
2023-02-26T21:32:05.426Z,1.53
2023-02-26T21:34:35.019Z,1.50
2023-02-26T21:37:03.440Z,1.37
2023-02-26T21:39:32.412Z,1.93
2023-02-26T21:42:03.873Z,1.83
2023-02-26T21:44:33.238Z,1.67
2023-02-26T21:47:01.271Z,1.60
2023-02-26T21:49:31.993Z,1.60
2023-02-26T21:52:00.242Z,1.83
2023-02-26T21:54:28.416Z,1.53
2023-02-26T21:56:56.595Z,1.57
2023-02-26T21:59:26.151Z,1.70
2023-02-26T22:01:56.644Z,1.50
2023-02-26T22:04:24.702Z,1.57
2023-02-26T22:06:52.859Z,1.93
2023-02-26T22:09:21.329Z,1.53
2023-02-26T22:11:49.369Z,1.97
2023-02-26T22:14:17.695Z,1.80
2023-02-26T22:16:47.251Z,1.77
2023-02-26T22:19:15.204Z,1.77
2023-02-26T22:21:43.164Z,2.37
2023-02-26T22:24:11.134Z,6.07
2023-02-26T22:26:39.029Z,4.60
2023-02-26T22:29:07.016Z,3.03
2023-02-26T22:31:34.924Z,4.73
2023-02-26T22:34:04.264Z,2.53
2023-02-26T22:36:32.490Z,2.50
2023-02-26T22:39:00.444Z,1.80
2023-02-26T22:41:28.362Z,2.30
2023-02-26T22:43:57.972Z,2.00
2023-02-26T22:46:28.333Z,2.63
2023-02-26T22:48:56.399Z,2.13
2023-02-26T22:51:26.070Z,1.73
2023-02-26T22:53:54.211Z,2.57
2023-02-26T22:56:22.121Z,1.90
2023-02-26T22:58:50.063Z,1.93
2023-02-26T23:01:18.098Z,1.90
2023-02-26T23:03:46.234Z,2.10
2023-02-26T23:06:14.689Z,2.37
2023-02-26T23:08:44.015Z,2.43
2023-02-26T23:11:12.056Z,2.10
2023-02-26T23:13:40.040Z,2.20
2023-02-26T23:16:09.994Z,1.87
2023-02-26T23:18:39.361Z,1.90
2023-02-26T23:21:08.217Z,1.90
2023-02-26T23:23:36.181Z,2.17
2023-02-26T23:26:05.829Z,1.90
2023-02-26T23:28:33.916Z,1.73
2023-02-26T23:31:01.998Z,1.80
2023-02-26T23:33:29.960Z,2.00
2023-02-26T23:35:58.048Z,1.67
2023-02-26T23:38:26.028Z,1.80
2023-02-26T23:40:53.985Z,1.77
2023-02-26T23:43:23.340Z,1.67
2023-02-26T23:45:51.321Z,1.90
2023-02-26T23:48:19.244Z,1.70
2023-02-26T23:50:49.517Z,1.97
2023-02-26T23:53:17.464Z,1.70
2023-02-26T23:55:45.427Z,1.70
2023-02-26T23:58:13.323Z,1.57
